sensor_id;sensor_type;location;lat;lon;timestamp;P1;durP1;ratioP1;P2;durP2;ratioP2
30617;SDS011;17384;51.214;9.202;2023-08-08T00:00:50;11.23;;;3.80;;
30617;SDS011;17384;51.214;9.202;2023-08-08T00:03:16;11.80;;;4.00;;
30617;SDS011;17384;51.214;9.202;2023-08-08T00:05:41;7.43;;;3.10;;
30617;SDS011;17384;51.214;9.202;2023-08-08T00:08:07;8.65;;;3.67;;
30617;SDS011;17384;51.214;9.202;2023-08-08T00:10:32;8.10;;;3.25;;
30617;SDS011;17384;51.214;9.202;2023-08-08T00:12:58;8.45;;;3.13;;
30617;SDS011;17384;51.214;9.202;2023-08-08T00:15:23;5.40;;;3.45;;
30617;SDS011;17384;51.214;9.202;2023-08-08T00:17:49;8.35;;;3.63;;
30617;SDS011;17384;51.214;9.202;2023-08-08T00:20:15;12.88;;;3.67;;
30617;SDS011;17384;51.214;9.202;2023-08-08T00:22:40;5.60;;;3.00;;
30617;SDS011;17384;51.214;9.202;2023-08-08T00:25:06;5.85;;;3.15;;
30617;SDS011;17384;51.214;9.202;2023-08-08T00:27:32;10.52;;;3.65;;
30617;SDS011;17384;51.214;9.202;2023-08-08T00:29:58;8.07;;;3.10;;
30617;SDS011;17384;51.214;9.202;2023-08-08T00:32:23;5.20;;;3.53;;
30617;SDS011;17384;51.214;9.202;2023-08-08T00:34:49;6.38;;;3.40;;
30617;SDS011;17384;51.214;9.202;2023-08-08T00:37:14;4.63;;;3.35;;
30617;SDS011;17384;51.214;9.202;2023-08-08T00:39:40;6.40;;;3.00;;
30617;SDS011;17384;51.214;9.202;2023-08-08T00:42:07;5.50;;;3.60;;
30617;SDS011;17384;51.214;9.202;2023-08-08T00:44:33;7.28;;;3.65;;
30617;SDS011;17384;51.214;9.202;2023-08-08T00:46:58;7.45;;;3.20;;
30617;SDS011;17384;51.214;9.202;2023-08-08T00:49:24;9.80;;;3.58;;
30617;SDS011;17384;51.214;9.202;2023-08-08T00:51:49;9.20;;;3.67;;
30617;SDS011;17384;51.214;9.202;2023-08-08T00:54:15;7.47;;;3.47;;
30617;SDS011;17384;51.214;9.202;2023-08-08T00:56:41;7.28;;;3.53;;
30617;SDS011;17384;51.214;9.202;2023-08-08T00:59:07;5.85;;;3.28;;
30617;SDS011;17384;51.214;9.202;2023-08-08T01:01:35;7.70;;;3.83;;
30617;SDS011;17384;51.214;9.202;2023-08-08T01:04:01;8.63;;;3.00;;
30617;SDS011;17384;51.214;9.202;2023-08-08T01:06:51;9.27;;;3.22;;
30617;SDS011;17384;51.214;9.202;2023-08-08T01:09:34;5.15;;;3.33;;
30617;SDS011;17384;51.214;9.202;2023-08-08T01:12:04;5.57;;;3.28;;
30617;SDS011;17384;51.214;9.202;2023-08-08T01:14:33;5.38;;;2.85;;
30617;SDS011;17384;51.214;9.202;2023-08-08T01:17:00;10.57;;;3.13;;
30617;SDS011;17384;51.214;9.202;2023-08-08T01:19:27;7.22;;;2.85;;
30617;SDS011;17384;51.214;9.202;2023-08-08T01:21:57;5.47;;;2.55;;
30617;SDS011;17384;51.214;9.202;2023-08-08T01:24:27;5.28;;;2.70;;
30617;SDS011;17384;51.214;9.202;2023-08-08T01:27:04;6.05;;;2.95;;
30617;SDS011;17384;51.214;9.202;2023-08-08T01:29:30;5.43;;;2.90;;
30617;SDS011;17384;51.214;9.202;2023-08-08T01:31:56;7.43;;;2.92;;
30617;SDS011;17384;51.214;9.202;2023-08-08T01:34:21;5.95;;;3.15;;
30617;SDS011;17384;51.214;9.202;2023-08-08T01:39:13;10.07;;;3.13;;
30617;SDS011;17384;51.214;9.202;2023-08-08T01:41:43;5.40;;;2.88;;
30617;SDS011;17384;51.214;9.202;2023-08-08T01:44:10;5.53;;;2.70;;
30617;SDS011;17384;51.214;9.202;2023-08-08T01:46:36;6.47;;;3.38;;
30617;SDS011;17384;51.214;9.202;2023-08-08T01:49:03;5.30;;;2.63;;
30617;SDS011;17384;51.214;9.202;2023-08-08T01:51:29;4.57;;;2.55;;
30617;SDS011;17384;51.214;9.202;2023-08-08T01:53:54;6.35;;;3.03;;
30617;SDS011;17384;51.214;9.202;2023-08-08T01:56:20;4.32;;;2.63;;
30617;SDS011;17384;51.214;9.202;2023-08-08T01:58:45;4.97;;;2.72;;
30617;SDS011;17384;51.214;9.202;2023-08-08T02:01:11;7.15;;;2.88;;
30617;SDS011;17384;51.214;9.202;2023-08-08T02:03:36;4.60;;;2.70;;
30617;SDS011;17384;51.214;9.202;2023-08-08T02:06:02;3.67;;;2.88;;
30617;SDS011;17384;51.214;9.202;2023-08-08T02:08:27;7.45;;;2.92;;
30617;SDS011;17384;51.214;9.202;2023-08-08T02:10:53;3.40;;;2.92;;
30617;SDS011;17384;51.214;9.202;2023-08-08T02:13:18;6.72;;;2.45;;
30617;SDS011;17384;51.214;9.202;2023-08-08T02:15:44;9.68;;;3.00;;
30617;SDS011;17384;51.214;9.202;2023-08-08T02:18:10;4.60;;;2.10;;
30617;SDS011;17384;51.214;9.202;2023-08-08T02:20:36;4.93;;;2.47;;
30617;SDS011;17384;51.214;9.202;2023-08-08T02:23:02;3.83;;;2.45;;
30617;SDS011;17384;51.214;9.202;2023-08-08T02:25:28;7.50;;;2.40;;
30617;SDS011;17384;51.214;9.202;2023-08-08T02:27:53;3.78;;;2.70;;
30617;SDS011;17384;51.214;9.202;2023-08-08T02:30:18;2.53;;;2.20;;
30617;SDS011;17384;51.214;9.202;2023-08-08T02:32:44;5.93;;;2.55;;
30617;SDS011;17384;51.214;9.202;2023-08-08T02:35:10;4.95;;;2.75;;
30617;SDS011;17384;51.214;9.202;2023-08-08T02:37:35;4.15;;;2.72;;
30617;SDS011;17384;51.214;9.202;2023-08-08T02:40:01;4.95;;;2.78;;
30617;SDS011;17384;51.214;9.202;2023-08-08T02:42:26;10.05;;;2.60;;
30617;SDS011;17384;51.214;9.202;2023-08-08T02:44:52;11.10;;;2.72;;
30617;SDS011;17384;51.214;9.202;2023-08-08T02:47:17;8.65;;;3.55;;
30617;SDS011;17384;51.214;9.202;2023-08-08T02:49:43;4.18;;;2.45;;
30617;SDS011;17384;51.214;9.202;2023-08-08T02:52:08;5.72;;;3.20;;
30617;SDS011;17384;51.214;9.202;2023-08-08T02:54:34;10.05;;;2.83;;
30617;SDS011;17384;51.214;9.202;2023-08-08T02:57:00;6.13;;;2.50;;
30617;SDS011;17384;51.214;9.202;2023-08-08T02:59:25;4.63;;;2.78;;
30617;SDS011;17384;51.214;9.202;2023-08-08T03:01:51;8.15;;;3.88;;
30617;SDS011;17384;51.214;9.202;2023-08-08T03:04:16;5.95;;;2.90;;
30617;SDS011;17384;51.214;9.202;2023-08-08T03:06:42;9.02;;;4.03;;
30617;SDS011;17384;51.214;9.202;2023-08-08T03:09:07;7.05;;;4.07;;
30617;SDS011;17384;51.214;9.202;2023-08-08T03:11:33;8.30;;;3.40;;
30617;SDS011;17384;51.214;9.202;2023-08-08T03:13:58;8.18;;;3.75;;
30617;SDS011;17384;51.214;9.202;2023-08-08T03:16:24;11.48;;;3.92;;
30617;SDS011;17384;51.214;9.202;2023-08-08T03:18:49;9.07;;;3.80;;
30617;SDS011;17384;51.214;9.202;2023-08-08T03:21:15;10.88;;;4.20;;
30617;SDS011;17384;51.214;9.202;2023-08-08T03:23:40;6.80;;;3.75;;
30617;SDS011;17384;51.214;9.202;2023-08-08T03:26:06;7.63;;;3.78;;
30617;SDS011;17384;51.214;9.202;2023-08-08T03:28:31;9.02;;;4.15;;
30617;SDS011;17384;51.214;9.202;2023-08-08T03:30:57;6.45;;;3.75;;
30617;SDS011;17384;51.214;9.202;2023-08-08T03:33:22;7.53;;;3.00;;
30617;SDS011;17384;51.214;9.202;2023-08-08T03:35:48;10.20;;;4.38;;
30617;SDS011;17384;51.214;9.202;2023-08-08T03:38:13;7.97;;;3.92;;
30617;SDS011;17384;51.214;9.202;2023-08-08T03:40:39;9.43;;;3.30;;
30617;SDS011;17384;51.214;9.202;2023-08-08T03:43:07;6.30;;;3.80;;
30617;SDS011;17384;51.214;9.202;2023-08-08T03:45:33;7.35;;;3.72;;
30617;SDS011;17384;51.214;9.202;2023-08-08T03:47:59;6.63;;;4.13;;
30617;SDS011;17384;51.214;9.202;2023-08-08T03:50:24;5.93;;;3.80;;
30617;SDS011;17384;51.214;9.202;2023-08-08T03:52:50;4.82;;;3.80;;
30617;SDS011;17384;51.214;9.202;2023-08-08T03:55:15;9.05;;;3.70;;
30617;SDS011;17384;51.214;9.202;2023-08-08T03:57:41;11.77;;;4.20;;
30617;SDS011;17384;51.214;9.202;2023-08-08T04:00:07;6.22;;;3.97;;
30617;SDS011;17384;51.214;9.202;2023-08-08T04:02:33;11.00;;;3.92;;
30617;SDS011;17384;51.214;9.202;2023-08-08T04:04:59;8.45;;;3.97;;
30617;SDS011;17384;51.214;9.202;2023-08-08T04:07:24;5.15;;;3.83;;
30617;SDS011;17384;51.214;9.202;2023-08-08T04:09:50;4.07;;;3.20;;
30617;SDS011;17384;51.214;9.202;2023-08-08T04:12:18;5.57;;;2.92;;
30617;SDS011;17384;51.214;9.202;2023-08-08T04:14:44;6.60;;;3.15;;
30617;SDS011;17384;51.214;9.202;2023-08-08T04:17:09;5.82;;;3.05;;
30617;SDS011;17384;51.214;9.202;2023-08-08T04:19:35;7.75;;;3.00;;
30617;SDS011;17384;51.214;9.202;2023-08-08T04:22:00;7.13;;;4.05;;
30617;SDS011;17384;51.214;9.202;2023-08-08T04:24:26;6.05;;;4.25;;
30617;SDS011;17384;51.214;9.202;2023-08-08T04:26:51;13.07;;;4.88;;
30617;SDS011;17384;51.214;9.202;2023-08-08T04:29:17;13.35;;;3.97;;
30617;SDS011;17384;51.214;9.202;2023-08-08T04:31:42;6.95;;;4.45;;
30617;SDS011;17384;51.214;9.202;2023-08-08T04:34:08;5.38;;;4.30;;
30617;SDS011;17384;51.214;9.202;2023-08-08T04:36:33;7.60;;;4.03;;
30617;SDS011;17384;51.214;9.202;2023-08-08T04:38:58;19.23;;;4.30;;
30617;SDS011;17384;51.214;9.202;2023-08-08T04:41:24;8.40;;;4.43;;
30617;SDS011;17384;51.214;9.202;2023-08-08T04:43:49;13.50;;;4.43;;
30617;SDS011;17384;51.214;9.202;2023-08-08T04:46:15;7.03;;;3.80;;
30617;SDS011;17384;51.214;9.202;2023-08-08T04:48:40;11.68;;;4.85;;
30617;SDS011;17384;51.214;9.202;2023-08-08T04:51:06;6.93;;;4.72;;
30617;SDS011;17384;51.214;9.202;2023-08-08T04:53:33;9.38;;;4.10;;
30617;SDS011;17384;51.214;9.202;2023-08-08T04:55:58;7.93;;;4.28;;
30617;SDS011;17384;51.214;9.202;2023-08-08T04:58:24;10.48;;;4.43;;
30617;SDS011;17384;51.214;9.202;2023-08-08T05:00:50;9.15;;;4.00;;
30617;SDS011;17384;51.214;9.202;2023-08-08T05:03:20;12.02;;;4.45;;
30617;SDS011;17384;51.214;9.202;2023-08-08T05:05:45;7.53;;;4.07;;
30617;SDS011;17384;51.214;9.202;2023-08-08T05:08:11;10.18;;;3.90;;
30617;SDS011;17384;51.214;9.202;2023-08-08T05:10:38;8.60;;;3.78;;
30617;SDS011;17384;51.214;9.202;2023-08-08T05:13:03;8.52;;;3.60;;
30617;SDS011;17384;51.214;9.202;2023-08-08T05:15:29;6.68;;;4.10;;
30617;SDS011;17384;51.214;9.202;2023-08-08T05:17:54;9.70;;;4.47;;
30617;SDS011;17384;51.214;9.202;2023-08-08T05:20:20;6.07;;;3.50;;
30617;SDS011;17384;51.214;9.202;2023-08-08T05:22:46;8.05;;;3.47;;
30617;SDS011;17384;51.214;9.202;2023-08-08T05:25:12;9.40;;;2.95;;
30617;SDS011;17384;51.214;9.202;2023-08-08T05:27:37;5.00;;;2.85;;
30617;SDS011;17384;51.214;9.202;2023-08-08T05:30:03;8.10;;;2.92;;
30617;SDS011;17384;51.214;9.202;2023-08-08T05:32:30;7.20;;;2.90;;
30617;SDS011;17384;51.214;9.202;2023-08-08T05:34:56;6.95;;;2.90;;
30617;SDS011;17384;51.214;9.202;2023-08-08T05:37:22;3.47;;;2.90;;
30617;SDS011;17384;51.214;9.202;2023-08-08T05:39:48;10.18;;;3.40;;
30617;SDS011;17384;51.214;9.202;2023-08-08T05:42:14;15.93;;;4.25;;
30617;SDS011;17384;51.214;9.202;2023-08-08T05:44:40;7.88;;;2.53;;
30617;SDS011;17384;51.214;9.202;2023-08-08T05:47:08;9.65;;;3.80;;
30617;SDS011;17384;51.214;9.202;2023-08-08T05:49:33;5.47;;;2.80;;
30617;SDS011;17384;51.214;9.202;2023-08-08T05:51:59;5.43;;;3.17;;
30617;SDS011;17384;51.214;9.202;2023-08-08T05:54:26;4.90;;;2.85;;
30617;SDS011;17384;51.214;9.202;2023-08-08T05:56:53;8.15;;;2.80;;
30617;SDS011;17384;51.214;9.202;2023-08-08T05:59:19;5.88;;;3.17;;
30617;SDS011;17384;51.214;9.202;2023-08-08T06:01:44;8.05;;;3.00;;
30617;SDS011;17384;51.214;9.202;2023-08-08T06:04:10;5.05;;;3.17;;
30617;SDS011;17384;51.214;9.202;2023-08-08T06:06:35;7.97;;;3.45;;
30617;SDS011;17384;51.214;9.202;2023-08-08T06:09:01;3.08;;;2.60;;
30617;SDS011;17384;51.214;9.202;2023-08-08T06:11:26;6.15;;;2.90;;
30617;SDS011;17384;51.214;9.202;2023-08-08T06:13:52;7.95;;;3.15;;
30617;SDS011;17384;51.214;9.202;2023-08-08T06:16:19;6.72;;;2.92;;
30617;SDS011;17384;51.214;9.202;2023-08-08T06:18:45;3.65;;;2.70;;
30617;SDS011;17384;51.214;9.202;2023-08-08T06:21:11;7.70;;;2.92;;
30617;SDS011;17384;51.214;9.202;2023-08-08T06:23:36;4.43;;;3.15;;
30617;SDS011;17384;51.214;9.202;2023-08-08T06:26:02;6.10;;;3.45;;
30617;SDS011;17384;51.214;9.202;2023-08-08T06:28:27;6.82;;;3.83;;
30617;SDS011;17384;51.214;9.202;2023-08-08T06:30:55;7.05;;;3.25;;
30617;SDS011;17384;51.214;9.202;2023-08-08T06:33:21;5.78;;;3.47;;
30617;SDS011;17384;51.214;9.202;2023-08-08T06:35:47;6.45;;;3.30;;
30617;SDS011;17384;51.214;9.202;2023-08-08T06:38:12;9.05;;;3.55;;
30617;SDS011;17384;51.214;9.202;2023-08-08T06:40:38;7.65;;;3.67;;
30617;SDS011;17384;51.214;9.202;2023-08-08T06:43:03;5.25;;;3.30;;
30617;SDS011;17384;51.214;9.202;2023-08-08T06:45:29;6.20;;;3.45;;
30617;SDS011;17384;51.214;9.202;2023-08-08T06:47:54;6.85;;;3.75;;
30617;SDS011;17384;51.214;9.202;2023-08-08T06:50:20;4.93;;;3.90;;
30617;SDS011;17384;51.214;9.202;2023-08-08T06:52:45;9.18;;;3.95;;
30617;SDS011;17384;51.214;9.202;2023-08-08T06:55:11;6.07;;;3.70;;
30617;SDS011;17384;51.214;9.202;2023-08-08T06:57:36;6.93;;;3.33;;
30617;SDS011;17384;51.214;9.202;2023-08-08T07:00:02;6.60;;;3.63;;
30617;SDS011;17384;51.214;9.202;2023-08-08T07:02:31;10.52;;;4.95;;
30617;SDS011;17384;51.214;9.202;2023-08-08T07:04:57;9.80;;;4.90;;
30617;SDS011;17384;51.214;9.202;2023-08-08T07:07:23;8.60;;;5.18;;
30617;SDS011;17384;51.214;9.202;2023-08-08T07:09:48;12.25;;;5.90;;
30617;SDS011;17384;51.214;9.202;2023-08-08T07:12:14;11.95;;;6.18;;
30617;SDS011;17384;51.214;9.202;2023-08-08T07:14:39;8.80;;;5.32;;
30617;SDS011;17384;51.214;9.202;2023-08-08T07:17:05;9.55;;;5.55;;
30617;SDS011;17384;51.214;9.202;2023-08-08T07:19:31;8.85;;;5.53;;
30617;SDS011;17384;51.214;9.202;2023-08-08T07:21:56;11.40;;;5.22;;
30617;SDS011;17384;51.214;9.202;2023-08-08T07:24:22;9.40;;;5.32;;
30617;SDS011;17384;51.214;9.202;2023-08-08T07:26:51;8.88;;;5.28;;
30617;SDS011;17384;51.214;9.202;2023-08-08T07:29:17;9.73;;;5.97;;
30617;SDS011;17384;51.214;9.202;2023-08-08T07:31:42;6.88;;;4.93;;
30617;SDS011;17384;51.214;9.202;2023-08-08T07:34:08;9.48;;;5.82;;
30617;SDS011;17384;51.214;9.202;2023-08-08T07:36:34;7.78;;;5.22;;
30617;SDS011;17384;51.214;9.202;2023-08-08T07:38:59;11.85;;;5.65;;
30617;SDS011;17384;51.214;9.202;2023-08-08T07:41:25;13.23;;;6.75;;
30617;SDS011;17384;51.214;9.202;2023-08-08T07:43:52;11.82;;;6.47;;
30617;SDS011;17384;51.214;9.202;2023-08-08T07:46:18;15.10;;;7.32;;
30617;SDS011;17384;51.214;9.202;2023-08-08T07:48:47;11.48;;;6.40;;
30617;SDS011;17384;51.214;9.202;2023-08-08T07:51:13;10.85;;;5.90;;
30617;SDS011;17384;51.214;9.202;2023-08-08T07:53:39;14.77;;;6.38;;
30617;SDS011;17384;51.214;9.202;2023-08-08T07:56:06;14.35;;;6.38;;
30617;SDS011;17384;51.214;9.202;2023-08-08T07:58:32;15.75;;;7.18;;
30617;SDS011;17384;51.214;9.202;2023-08-08T08:00:57;14.23;;;6.50;;
30617;SDS011;17384;51.214;9.202;2023-08-08T08:03:24;13.80;;;6.32;;
30617;SDS011;17384;51.214;9.202;2023-08-08T08:05:52;15.55;;;6.78;;
30617;SDS011;17384;51.214;9.202;2023-08-08T08:08:18;12.77;;;6.45;;
30617;SDS011;17384;51.214;9.202;2023-08-08T08:10:44;13.85;;;6.32;;
30617;SDS011;17384;51.214;9.202;2023-08-08T08:13:11;11.68;;;5.72;;
30617;SDS011;17384;51.214;9.202;2023-08-08T08:15:37;11.85;;;7.00;;
30617;SDS011;17384;51.214;9.202;2023-08-08T08:18:03;10.52;;;6.93;;
30617;SDS011;17384;51.214;9.202;2023-08-08T08:20:29;10.70;;;6.38;;
30617;SDS011;17384;51.214;9.202;2023-08-08T08:22:54;13.25;;;6.72;;
30617;SDS011;17384;51.214;9.202;2023-08-08T08:25:20;13.70;;;6.03;;
30617;SDS011;17384;51.214;9.202;2023-08-08T08:27:46;12.15;;;6.30;;
30617;SDS011;17384;51.214;9.202;2023-08-08T08:30:11;19.77;;;5.93;;
30617;SDS011;17384;51.214;9.202;2023-08-08T08:32:39;10.68;;;6.32;;
30617;SDS011;17384;51.214;9.202;2023-08-08T08:35:05;15.48;;;6.43;;
30617;SDS011;17384;51.214;9.202;2023-08-08T08:37:33;14.38;;;6.75;;
30617;SDS011;17384;51.214;9.202;2023-08-08T08:40:00;13.07;;;6.35;;
30617;SDS011;17384;51.214;9.202;2023-08-08T08:42:26;13.05;;;6.55;;
30617;SDS011;17384;51.214;9.202;2023-08-08T08:44:57;9.07;;;5.95;;
30617;SDS011;17384;51.214;9.202;2023-08-08T08:47:24;13.32;;;5.88;;
30617;SDS011;17384;51.214;9.202;2023-08-08T08:49:54;12.27;;;5.88;;
30617;SDS011;17384;51.214;9.202;2023-08-08T08:52:21;13.38;;;6.10;;
30617;SDS011;17384;51.214;9.202;2023-08-08T08:54:47;11.77;;;6.10;;
30617;SDS011;17384;51.214;9.202;2023-08-08T08:57:13;17.40;;;6.05;;
30617;SDS011;17384;51.214;9.202;2023-08-08T08:59:39;8.90;;;6.03;;
30617;SDS011;17384;51.214;9.202;2023-08-08T09:02:05;11.40;;;6.05;;
30617;SDS011;17384;51.214;9.202;2023-08-08T09:04:31;14.90;;;6.18;;
30617;SDS011;17384;51.214;9.202;2023-08-08T09:06:59;11.60;;;6.82;;
30617;SDS011;17384;51.214;9.202;2023-08-08T09:09:26;11.23;;;6.07;;
30617;SDS011;17384;51.214;9.202;2023-08-08T09:11:52;10.43;;;6.28;;
30617;SDS011;17384;51.214;9.202;2023-08-08T09:14:22;13.48;;;6.72;;
30617;SDS011;17384;51.214;9.202;2023-08-08T09:16:49;12.32;;;6.50;;
30617;SDS011;17384;51.214;9.202;2023-08-08T09:19:17;8.75;;;6.40;;
30617;SDS011;17384;51.214;9.202;2023-08-08T09:21:44;12.18;;;6.00;;
30617;SDS011;17384;51.214;9.202;2023-08-08T09:24:10;11.90;;;6.57;;
30617;SDS011;17384;51.214;9.202;2023-08-08T09:26:36;10.73;;;6.50;;
30617;SDS011;17384;51.214;9.202;2023-08-08T09:29:02;12.02;;;6.50;;
30617;SDS011;17384;51.214;9.202;2023-08-08T09:31:28;9.50;;;5.60;;
30617;SDS011;17384;51.214;9.202;2023-08-08T09:33:59;15.02;;;6.50;;
30617;SDS011;17384;51.214;9.202;2023-08-08T09:36:26;10.68;;;6.53;;
30617;SDS011;17384;51.214;9.202;2023-08-08T09:38:55;12.32;;;6.72;;
30617;SDS011;17384;51.214;9.202;2023-08-08T09:41:22;10.32;;;7.55;;
30617;SDS011;17384;51.214;9.202;2023-08-08T09:43:51;10.35;;;6.75;;
30617;SDS011;17384;51.214;9.202;2023-08-08T09:46:18;12.70;;;6.82;;
30617;SDS011;17384;51.214;9.202;2023-08-08T09:48:45;14.60;;;7.00;;
30617;SDS011;17384;51.214;9.202;2023-08-08T09:51:11;9.70;;;6.50;;
30617;SDS011;17384;51.214;9.202;2023-08-08T09:53:38;12.63;;;6.38;;
30617;SDS011;17384;51.214;9.202;2023-08-08T09:56:05;8.77;;;6.32;;
30617;SDS011;17384;51.214;9.202;2023-08-08T09:58:31;12.88;;;6.88;;
30617;SDS011;17384;51.214;9.202;2023-08-08T10:00:57;11.90;;;7.20;;
30617;SDS011;17384;51.214;9.202;2023-08-08T10:03:23;12.45;;;6.50;;
30617;SDS011;17384;51.214;9.202;2023-08-08T10:05:51;12.55;;;6.38;;
30617;SDS011;17384;51.214;9.202;2023-08-08T10:08:17;10.27;;;6.57;;
30617;SDS011;17384;51.214;9.202;2023-08-08T10:10:45;10.43;;;6.35;;
30617;SDS011;17384;51.214;9.202;2023-08-08T10:13:46;11.10;;;6.35;;
30617;SDS011;17384;51.214;9.202;2023-08-08T10:16:12;11.15;;;6.75;;
30617;SDS011;17384;51.214;9.202;2023-08-08T10:18:40;9.00;;;5.82;;
30617;SDS011;17384;51.214;9.202;2023-08-08T10:21:06;12.13;;;6.10;;
30617;SDS011;17384;51.214;9.202;2023-08-08T10:23:35;14.60;;;5.95;;
30617;SDS011;17384;51.214;9.202;2023-08-08T10:26:05;6.47;;;5.18;;
30617;SDS011;17384;51.214;9.202;2023-08-08T10:28:51;11.10;;;6.68;;
30617;SDS011;17384;51.214;9.202;2023-08-08T10:31:19;10.77;;;5.47;;
30617;SDS011;17384;51.214;9.202;2023-08-08T10:33:45;14.20;;;7.07;;
30617;SDS011;17384;51.214;9.202;2023-08-08T10:36:11;14.25;;;6.95;;
30617;SDS011;17384;51.214;9.202;2023-08-08T10:38:42;9.80;;;5.22;;
30617;SDS011;17384;51.214;9.202;2023-08-08T10:41:10;11.73;;;5.88;;
30617;SDS011;17384;51.214;9.202;2023-08-08T10:43:37;12.80;;;5.35;;
30617;SDS011;17384;51.214;9.202;2023-08-08T10:46:04;8.15;;;5.25;;
30617;SDS011;17384;51.214;9.202;2023-08-08T10:48:30;12.13;;;5.55;;
30617;SDS011;17384;51.214;9.202;2023-08-08T10:50:59;12.32;;;5.38;;
30617;SDS011;17384;51.214;9.202;2023-08-08T10:53:26;9.88;;;5.00;;
30617;SDS011;17384;51.214;9.202;2023-08-08T10:56:00;12.43;;;5.95;;
30617;SDS011;17384;51.214;9.202;2023-08-08T10:58:40;8.27;;;5.05;;
30617;SDS011;17384;51.214;9.202;2023-08-08T11:01:07;9.38;;;5.30;;
30617;SDS011;17384;51.214;9.202;2023-08-08T11:03:37;10.07;;;5.13;;
30617;SDS011;17384;51.214;9.202;2023-08-08T11:06:05;10.23;;;4.80;;
30617;SDS011;17384;51.214;9.202;2023-08-08T11:08:35;9.07;;;4.82;;
30617;SDS011;17384;51.214;9.202;2023-08-08T11:11:03;10.27;;;5.47;;
30617;SDS011;17384;51.214;9.202;2023-08-08T11:13:29;11.50;;;5.22;;
30617;SDS011;17384;51.214;9.202;2023-08-08T11:15:55;12.13;;;5.75;;
30617;SDS011;17384;51.214;9.202;2023-08-08T11:18:21;6.60;;;4.10;;
30617;SDS011;17384;51.214;9.202;2023-08-08T11:20:48;6.82;;;4.10;;
30617;SDS011;17384;51.214;9.202;2023-08-08T11:23:14;13.15;;;5.28;;
30617;SDS011;17384;51.214;9.202;2023-08-08T11:25:41;7.75;;;4.10;;
30617;SDS011;17384;51.214;9.202;2023-08-08T11:28:08;7.82;;;4.90;;
30617;SDS011;17384;51.214;9.202;2023-08-08T11:30:35;12.02;;;4.47;;
30617;SDS011;17384;51.214;9.202;2023-08-08T11:33:04;9.80;;;4.57;;
30617;SDS011;17384;51.214;9.202;2023-08-08T11:35:30;12.07;;;4.60;;
30617;SDS011;17384;51.214;9.202;2023-08-08T11:37:56;8.15;;;4.57;;
30617;SDS011;17384;51.214;9.202;2023-08-08T11:40:23;5.60;;;3.80;;
30617;SDS011;17384;51.214;9.202;2023-08-08T11:42:51;7.32;;;4.03;;
30617;SDS011;17384;51.214;9.202;2023-08-08T11:45:18;8.13;;;4.07;;
30617;SDS011;17384;51.214;9.202;2023-08-08T11:47:47;10.75;;;3.80;;
30617;SDS011;17384;51.214;9.202;2023-08-08T11:50:16;5.85;;;3.85;;
30617;SDS011;17384;51.214;9.202;2023-08-08T11:52:45;6.32;;;4.20;;
30617;SDS011;17384;51.214;9.202;2023-08-08T11:55:11;8.30;;;4.22;;
30617;SDS011;17384;51.214;9.202;2023-08-08T11:57:38;7.53;;;4.35;;
30617;SDS011;17384;51.214;9.202;2023-08-08T12:00:08;10.90;;;4.28;;
30617;SDS011;17384;51.214;9.202;2023-08-08T12:02:38;8.88;;;4.75;;
30617;SDS011;17384;51.214;9.202;2023-08-08T12:05:05;8.23;;;4.75;;
30617;SDS011;17384;51.214;9.202;2023-08-08T12:07:35;9.88;;;4.32;;
30617;SDS011;17384;51.214;9.202;2023-08-08T12:10:05;7.40;;;4.88;;
30617;SDS011;17384;51.214;9.202;2023-08-08T12:12:31;8.65;;;4.68;;
30617;SDS011;17384;51.214;9.202;2023-08-08T12:15:06;7.38;;;5.50;;
